Aviation Digital Data Service (ADDS)

Output produced by METARs form (1953 UTC 23 November 2014)
found at http://aviationweather.gov/adds/metars/
 
KBPT 231728Z 2318/2418 24012G22KT P6SM SKC 
     FM240700 33012G18KT P6SM BKN250